Time;durP1;ratioP1;P1;durP2;ratioP2;P2;SDS_P1;SDS_P2;PMS_P1;PMS_P2;Temp;Humidity;BMP_temperature;BMP_pressure;BME280_temperature;BME280_humidity;BME280_pressure;Samples;Min_cycle;Max_cycle;Signal;HPM_P1;HPM_P2
2023/01/24 00:01:54;;;;;;;20.15;17.80;;;8.40;91.80;;;;;;5072261;28;20474;-71
2023/01/24 00:04:19;;;;;;;19.92;17.92;;;8.30;91.80;;;;;;5071964;28;20047;-69
2023/01/24 00:06:45;;;;;;;19.60;17.42;;;8.30;91.90;;;;;;5072227;28;20082;-71
2023/01/24 00:09:10;;;;;;;21.10;18.70;;;8.30;91.90;;;;;;5072073;28;20086;-76
2023/01/24 00:11:36;;;;;;;19.70;17.65;;;8.30;91.90;;;;;;5071703;28;20037;-71
2023/01/24 00:14:01;;;;;;;20.42;18.23;;;8.30;91.80;;;;;;5072043;28;20036;-72
2023/01/24 00:16:27;;;;;;;22.08;19.77;;;8.30;91.90;;;;;;5071904;28;20039;-68
2023/01/24 00:18:52;;;;;;;19.92;17.85;;;8.30;92.00;;;;;;5072045;28;20017;-71
2023/01/24 00:21:21;;;;;;;19.58;17.60;;;8.30;92.00;;;;;;5072224;28;20474;-74
2023/01/24 00:23:49;;;;;;;20.27;18.25;;;8.30;92.00;;;;;;5072010;28;20068;-69
2023/01/24 00:26:16;;;;;;;22.13;18.08;;;8.30;92.00;;;;;;5071534;28;20509;-74
2023/01/24 00:28:42;;;;;;;21.17;18.75;;;8.30;91.90;;;;;;5071894;28;20030;-70
2023/01/24 00:31:07;;;;;;;19.83;17.67;;;8.30;91.90;;;;;;5071745;28;20449;-72
2023/01/24 00:33:33;;;;;;;19.98;17.88;;;8.30;92.00;;;;;;5071994;28;20484;-68
2023/01/24 00:36:00;;;;;;;22.15;19.88;;;8.30;92.00;;;;;;5071969;28;20032;-74
2023/01/24 00:38:27;;;;;;;21.40;19.15;;;8.30;91.80;;;;;;5071991;28;20375;-71
2023/01/24 00:40:53;;;;;;;20.30;18.15;;;8.30;92.00;;;;;;5073074;28;20020;-68
2023/01/24 00:43:18;;;;;;;20.98;18.77;;;8.30;91.90;;;;;;5075399;28;20017;-67
2023/01/24 00:45:45;;;;;;;19.98;17.98;;;8.30;91.80;;;;;;5057196;28;20470;-67
2023/01/24 00:48:12;;;;;;;21.02;18.83;;;8.30;91.90;;;;;;5075352;28;20031;-67
2023/01/24 00:50:37;;;;;;;20.73;18.45;;;8.30;91.80;;;;;;5075179;28;20024;-66
2023/01/24 00:53:03;;;;;;;20.33;18.23;;;8.20;91.90;;;;;;5075150;28;20047;-67
2023/01/24 00:55:29;;;;;;;21.17;18.88;;;8.20;92.00;;;;;;5074686;28;20052;-66
2023/01/24 00:57:55;;;;;;;21.42;19.13;;;8.20;92.00;;;;;;5075181;28;20499;-67
2023/01/24 01:00:22;;;;;;;22.88;18.88;;;8.20;92.10;;;;;;5075109;28;20107;-66
2023/01/24 01:02:48;;;;;;;20.75;18.55;;;8.30;92.00;;;;;;5075152;28;20099;-64
2023/01/24 01:05:14;;;;;;;22.20;19.80;;;8.30;92.00;;;;;;5074783;28;20025;-65
2023/01/24 01:07:40;;;;;;;21.73;18.95;;;8.20;92.10;;;;;;5057062;28;20389;-68
2023/01/24 01:10:05;;;;;;;22.80;19.20;;;8.30;92.10;;;;;;5074662;28;20036;-73
2023/01/24 01:12:31;;;;;;;23.15;19.35;;;8.30;92.00;;;;;;5074784;28;20079;-66
2023/01/24 01:14:57;;;;;;;22.20;19.80;;;8.20;92.00;;;;;;5074862;28;20116;-67
2023/01/24 01:17:22;;;;;;;22.45;20.02;;;8.20;92.10;;;;;;5074738;28;20029;-67
2023/01/24 01:19:51;;;;;;;22.48;19.58;;;8.20;92.10;;;;;;5074923;28;20039;-67
2023/01/24 01:22:17;;;;;;;22.25;19.90;;;8.20;92.20;;;;;;5040206;28;20473;-66
2023/01/24 01:24:43;;;;;;;25.00;20.65;;;8.20;92.10;;;;;;5074308;28;20153;-69
2023/01/24 01:27:08;;;;;;;23.20;20.80;;;8.20;92.20;;;;;;5074533;28;20032;-66
2023/01/24 01:29:34;;;;;;;22.88;19.83;;;8.20;92.20;;;;;;5074622;28;20021;-66
2023/01/24 01:32:00;;;;;;;22.63;20.10;;;8.20;92.20;;;;;;5074347;28;20119;-67
2023/01/24 01:34:25;;;;;;;21.95;19.58;;;8.20;92.10;;;;;;5074507;28;20066;-73
2023/01/24 01:36:51;;;;;;;22.48;20.10;;;8.20;92.20;;;;;;5067623;28;20119;-70
2023/01/24 01:39:16;;;;;;;23.45;20.73;;;8.20;92.20;;;;;;5052465;28;20025;-76
2023/01/24 01:41:42;;;;;;;22.65;20.20;;;8.20;92.20;;;;;;5053761;28;20025;-71
2023/01/24 01:47:15;;;;;;;22.05;19.27;;;8.20;92.20;;;;;;5053873;28;20032;-66
2023/01/24 01:49:53;;;;;;;22.83;20.40;;;8.10;92.20;;;;;;5054208;28;20048;-68
2023/01/24 01:52:19;;;;;;;22.40;19.88;;;8.20;92.20;;;;;;5035494;28;20468;-67
2023/01/24 01:54:46;;;;;;;23.35;20.42;;;8.10;92.20;;;;;;5054067;28;20017;-67
2023/01/24 01:57:17;;;;;;;24.38;21.45;;;8.10;92.30;;;;;;5054056;28;20036;-68
2023/01/24 01:59:58;;;;;;;23.42;20.95;;;8.10;92.10;;;;;;5053993;28;20013;-67
2023/01/24 02:02:24;;;;;;;22.58;20.08;;;8.10;92.10;;;;;;5053842;28;20543;-66
2023/01/24 02:04:57;;;;;;;24.15;21.50;;;8.10;92.30;;;;;;5035832;28;20478;-67
2023/01/24 02:07:29;;;;;;;25.50;21.65;;;8.00;92.30;;;;;;5053610;28;20028;-67
2023/01/24 02:09:56;;;;;;;23.33;20.80;;;8.10;92.20;;;;;;5053741;28;20049;-67
2023/01/24 02:12:26;;;;;;;24.27;21.30;;;8.10;92.20;;;;;;5053610;28;20069;-66
2023/01/24 02:17:40;;;;;;;26.17;21.65;;;8.00;92.20;;;;;;5054073;28;20036;-66
2023/01/24 02:20:24;;;;;;;26.10;22.20;;;8.10;92.40;;;;;;5053861;28;20013;-67
2023/01/24 02:23:20;;;;;;;24.88;22.15;;;8.10;92.30;;;;;;5053084;28;20028;-68
2023/01/24 02:26:09;;;;;;;24.20;21.00;;;8.10;92.50;;;;;;5053301;28;20498;-68
2023/01/24 02:28:35;;;;;;;23.70;20.75;;;8.10;92.40;;;;;;5053407;28;20039;-66
2023/01/24 02:31:02;;;;;;;26.98;22.27;;;8.10;92.30;;;;;;5053325;28;20490;-67
2023/01/24 02:33:28;;;;;;;25.73;21.58;;;8.10;92.30;;;;;;5053287;28;20025;-67
2023/01/24 02:36:14;;;;;;;26.55;22.35;;;8.10;92.30;;;;;;5052955;28;20078;-67
2023/01/24 02:38:42;;;;;;;24.05;21.20;;;8.10;92.30;;;;;;5053313;28;20087;-67
2023/01/24 02:41:09;;;;;;;23.85;21.27;;;8.10;92.30;;;;;;5053413;28;20025;-66
2023/01/24 02:43:40;;;;;;;26.77;22.90;;;8.00;92.40;;;;;;5053102;28;20120;-66
2023/01/24 02:46:06;;;;;;;25.65;21.38;;;8.00;92.30;;;;;;5053510;28;20120;-67
2023/01/24 02:48:31;;;;;;;26.20;22.98;;;8.00;92.40;;;;;;5052793;28;20529;-67
2023/01/24 02:53:41;;;;;;;24.63;21.63;;;8.00;92.50;;;;;;5052793;28;20086;-66
2023/01/24 02:58:53;;;;;;;25.17;22.27;;;8.00;92.60;;;;;;5052995;28;20148;-66
2023/01/24 03:01:20;;;;;;;24.15;21.60;;;7.90;92.50;;;;;;5053003;28;20027;-67
2023/01/24 03:03:47;;;;;;;23.75;21.25;;;8.00;92.50;;;;;;5051871;28;20036;-66
2023/01/24 03:06:14;;;;;;;26.85;21.35;;;8.00;92.50;;;;;;5052672;28;20082;-66
2023/01/24 03:08:39;;;;;;;24.50;21.90;;;8.00;92.40;;;;;;5052698;28;20028;-66
2023/01/24 03:11:06;;;;;;;24.10;20.98;;;7.90;92.40;;;;;;5052732;28;20033;-66
2023/01/24 03:35:27;;;;;;;21.35;18.85;;;7.90;92.40;;;;;;5052408;28;20036;-67
2023/01/24 03:40:37;;;;;;;23.23;20.38;;;7.90;92.30;;;;;;5052703;28;20121;-66
2023/01/24 03:43:03;;;;;;;22.75;19.70;;;7.90;92.40;;;;;;5052427;28;20060;-68
2023/01/24 03:45:35;;;;;;;21.88;18.80;;;7.90;92.40;;;;;;5052153;28;20036;-66
2023/01/24 03:48:03;;;;;;;22.73;19.67;;;7.80;92.50;;;;;;5052268;28;20055;-66
2023/01/24 03:53:23;;;;;;;20.58;18.38;;;7.90;92.50;;;;;;5052525;28;20438;-66
2023/01/24 03:55:54;;;;;;;23.85;18.98;;;7.90;92.40;;;;;;5052075;28;20025;-66
2023/01/24 03:58:20;;;;;;;21.58;18.63;;;7.80;92.40;;;;;;5052319;28;20029;-65
2023/01/24 04:00:46;;;;;;;20.90;18.70;;;7.80;92.40;;;;;;5052268;28;20044;-68
2023/01/24 04:03:11;;;;;;;21.05;18.77;;;7.90;92.50;;;;;;5051756;28;20466;-70
2023/01/24 04:05:37;;;;;;;22.52;19.77;;;7.90;92.40;;;;;;5052695;28;20025;-65
2023/01/24 04:08:03;;;;;;;22.02;19.73;;;7.80;92.30;;;;;;5052155;28;20078;-66
2023/01/24 04:10:29;;;;;;;21.25;18.90;;;7.90;92.50;;;;;;5051977;28;20021;-70
2023/01/24 04:12:55;;;;;;;21.63;19.17;;;7.90;92.50;;;;;;5052137;28;20103;-66
2023/01/24 04:15:28;;;;;;;23.55;18.80;;;7.80;92.40;;;;;;5052859;28;20013;-67
2023/01/24 04:17:59;;;;;;;22.52;18.88;;;7.80;92.50;;;;;;5055676;28;20031;-75
2023/01/24 04:20:27;;;;;;;22.05;19.73;;;7.80;92.50;;;;;;5055673;28;20104;-72
2023/01/24 04:22:52;;;;;;;22.02;18.98;;;7.70;92.50;;;;;;5055791;28;20013;-67
2023/01/24 04:25:18;;;;;;;20.83;18.58;;;7.80;92.50;;;;;;5055626;28;20500;-71
2023/01/24 04:27:44;;;;;;;25.23;21.10;;;7.80;92.50;;;;;;5038030;28;20057;-67
2023/01/24 04:30:11;;;;;;;25.10;21.65;;;7.80;92.50;;;;;;5055462;28;20481;-67
2023/01/24 04:32:37;;;;;;;23.77;21.23;;;7.80;92.40;;;;;;5055478;28;20406;-67
2023/01/24 04:35:03;;;;;;;26.23;23.40;;;7.80;92.60;;;;;;5055502;28;20031;-67
2023/01/24 04:37:30;;;;;;;26.70;23.60;;;7.70;92.50;;;;;;5037661;28;20546;-66
2023/01/24 04:39:56;;;;;;;26.52;23.40;;;7.70;92.50;;;;;;5055402;28;20055;-66
2023/01/24 04:42:21;;;;;;;25.70;22.92;;;7.70;92.60;;;;;;5037643;28;20052;-72
2023/01/24 04:44:47;;;;;;;23.80;21.23;;;7.80;92.60;;;;;;5055303;28;20536;-67
2023/01/24 04:47:13;;;;;;;23.13;20.67;;;7.80;92.70;;;;;;5037338;28;20021;-67
2023/01/24 04:49:38;;;;;;;24.77;20.55;;;7.70;92.70;;;;;;5055267;28;20029;-66
2023/01/24 04:52:05;;;;;;;23.42;20.92;;;7.70;92.70;;;;;;5037290;28;20071;-67
2023/01/24 04:54:30;;;;;;;24.02;21.42;;;7.80;92.70;;;;;;5055300;28;20027;-66
2023/01/24 04:56:56;;;;;;;23.73;19.17;;;7.70;92.60;;;;;;5055092;28;20029;-66
2023/01/24 04:59:21;;;;;;;21.98;19.60;;;7.70;92.60;;;;;;5055186;28;20071;-72
2023/01/24 05:01:47;;;;;;;23.40;19.40;;;7.70;92.70;;;;;;5054839;28;20489;-67
2023/01/24 05:04:12;;;;;;;21.52;19.08;;;7.70;92.50;;;;;;5054967;28;20032;-67
2023/01/24 05:06:38;;;;;;;21.52;18.90;;;7.70;92.50;;;;;;5055029;28;20033;-65
2023/01/24 05:09:04;;;;;;;22.23;19.52;;;7.70;92.60;;;;;;5054949;28;20021;-66
2023/01/24 05:11:29;;;;;;;21.90;19.38;;;7.70;92.50;;;;;;5054860;28;20025;-71
2023/01/24 05:13:55;;;;;;;20.00;17.83;;;7.70;92.50;;;;;;5054973;28;20029;-66
2023/01/24 05:16:20;;;;;;;21.20;18.25;;;7.70;92.50;;;;;;5054509;28;20577;-68
2023/01/24 05:18:46;;;;;;;19.73;17.50;;;7.70;92.60;;;;;;5054957;28;20108;-73
2023/01/24 05:21:14;;;;;;;20.25;17.90;;;7.70;92.50;;;;;;5036802;28;20021;-76
2023/01/24 05:23:40;;;;;;;22.13;19.48;;;7.70;92.60;;;;;;5054785;28;20071;-72
2023/01/24 05:26:06;;;;;;;20.05;17.83;;;7.70;92.50;;;;;;5053943;28;20029;-70
2023/01/24 05:28:32;;;;;;;20.35;17.40;;;7.60;92.50;;;;;;5054866;28;20386;-75
2023/01/24 05:31:01;;;;;;;20.88;18.40;;;7.60;92.60;;;;;;5054086;28;20037;-72
2023/01/24 05:33:27;;;;;;;19.50;17.42;;;7.60;92.60;;;;;;5054613;28;20021;-76
2023/01/24 05:35:58;;;;;;;19.90;17.77;;;7.60;92.60;;;;;;5054304;28;20086;-70
2023/01/24 05:38:24;;;;;;;20.70;18.48;;;7.60;92.60;;;;;;5054488;28;20021;-75
2023/01/24 05:40:49;;;;;;;20.77;17.65;;;7.60;92.60;;;;;;5054299;28;20028;-73
2023/01/24 05:43:15;;;;;;;22.35;18.30;;;7.60;92.60;;;;;;5054248;28;20021;-74
2023/01/24 05:45:40;;;;;;;19.75;17.15;;;7.60;92.60;;;;;;5053931;28;20025;-75
2023/01/24 05:48:06;;;;;;;27.60;18.52;;;7.60;92.60;;;;;;5054234;28;20170;-69
2023/01/24 05:50:31;;;;;;;22.42;17.95;;;7.60;92.40;;;;;;5054337;28;20482;-69
2023/01/24 05:52:57;;;;;;;19.52;16.30;;;7.60;91.80;;;;;;5054047;28;20451;-69
2023/01/24 05:55:22;;;;;;;20.73;17.33;;;7.50;91.90;;;;;;5060349;28;20032;-70
2023/01/24 05:57:48;;;;;;;20.23;18.05;;;7.50;91.90;;;;;;5072597;28;20037;-77
2023/01/24 06:00:14;;;;;;;19.83;17.73;;;7.50;91.90;;;;;;5053884;28;20025;-74
2023/01/24 06:02:39;;;;;;;18.58;16.58;;;7.50;91.70;;;;;;5054621;28;20021;-76
2023/01/24 06:05:05;;;;;;;19.65;17.55;;;7.60;92.00;;;;;;5050911;28;20021;-70
2023/01/24 06:07:31;;;;;;;20.05;17.30;;;7.60;91.90;;;;;;5050337;28;20017;-68
2023/01/24 06:09:56;;;;;;;19.40;17.27;;;7.50;92.10;;;;;;5053779;28;20095;-77
2023/01/24 06:12:22;;;;;;;20.42;17.80;;;7.50;92.20;;;;;;5053231;28;20037;-70
2023/01/24 06:14:47;;;;;;;19.23;17.00;;;7.50;92.10;;;;;;5053478;28;20053;-65
2023/01/24 06:17:13;;;;;;;20.02;17.23;;;7.50;92.10;;;;;;5053796;28;20048;-66
2023/01/24 06:19:39;;;;;;;19.90;17.08;;;7.50;92.20;;;;;;5054078;28;20025;-70
2023/01/24 06:22:23;;;;;;;21.08;18.08;;;7.50;92.20;;;;;;5053397;28;20504;-69
2023/01/24 06:24:49;;;;;;;21.02;18.40;;;7.50;92.80;;;;;;5053394;28;20060;-65
2023/01/24 06:27:15;;;;;;;21.75;19.42;;;7.50;92.70;;;;;;5061837;28;20116;-67
2023/01/24 06:29:40;;;;;;;23.58;19.17;;;7.50;92.70;;;;;;5066094;28;20028;-66
2023/01/24 06:32:22;;;;;;;23.55;19.90;;;7.50;92.80;;;;;;5074524;28;20491;-68
2023/01/24 06:34:57;;;;;;;22.25;18.58;;;7.50;92.70;;;;;;5072988;28;20044;-63
2023/01/24 06:37:47;;;;;;;22.75;19.75;;;7.50;92.90;;;;;;5070976;28;20036;-65
2023/01/24 06:40:16;;;;;;;21.98;19.05;;;7.50;92.80;;;;;;5059715;28;20024;-64
2023/01/24 06:42:42;;;;;;;21.50;19.15;;;7.40;92.90;;;;;;5065466;28;20032;-65
2023/01/24 06:45:08;;;;;;;23.70;19.60;;;7.50;92.90;;;;;;5069845;28;20119;-66
2023/01/24 06:47:34;;;;;;;28.25;21.23;;;7.50;93.00;;;;;;5068443;28;20086;-66
2023/01/24 06:50:00;;;;;;;23.80;20.55;;;7.50;93.00;;;;;;5070543;28;20024;-64
2023/01/24 06:52:25;;;;;;;24.40;20.52;;;7.50;93.00;;;;;;5067825;28;20492;-64
2023/01/24 06:54:51;;;;;;;25.58;21.85;;;7.50;93.10;;;;;;5071694;28;20119;-64
2023/01/24 06:57:16;;;;;;;22.48;20.08;;;7.50;93.10;;;;;;5060232;28;20064;-64
2023/01/24 06:59:42;;;;;;;24.88;20.67;;;7.50;93.10;;;;;;5064025;28;20115;-63
2023/01/24 07:02:09;;;;;;;24.88;21.42;;;7.50;93.20;;;;;;5064345;28;20029;-65
2023/01/24 07:04:36;;;;;;;25.63;21.77;;;7.50;93.10;;;;;;5065003;28;20078;-64
2023/01/24 07:07:02;;;;;;;23.45;20.42;;;7.50;93.20;;;;;;5066405;28;20492;-65
2023/01/24 07:09:27;;;;;;;23.35;20.65;;;7.40;93.40;;;;;;5056857;28;20029;-64
2023/01/24 07:11:57;;;;;;;26.27;21.05;;;7.40;93.60;;;;;;5049414;28;20029;-65
2023/01/24 07:14:23;;;;;;;25.02;21.40;;;7.50;93.30;;;;;;5050725;28;20027;-65
2023/01/24 07:16:50;;;;;;;24.27;21.15;;;7.40;93.30;;;;;;5051129;28;20502;-67
2023/01/24 07:19:19;;;;;;;23.67;20.67;;;7.40;93.30;;;;;;5052097;28;20356;-65
2023/01/24 07:21:45;;;;;;;23.00;19.80;;;7.40;93.40;;;;;;5052432;28;20029;-66
2023/01/24 07:24:15;;;;;;;28.95;20.48;;;7.50;93.30;;;;;;5034148;28;20417;-64
2023/01/24 07:26:41;;;;;;;22.63;19.05;;;7.50;93.40;;;;;;5052053;28;20110;-63
2023/01/24 07:29:07;;;;;;;27.02;20.25;;;7.40;93.40;;;;;;5052380;28;20024;-64
2023/01/24 07:31:33;;;;;;;25.63;20.70;;;7.50;93.50;;;;;;5034232;28;20136;-65
2023/01/24 07:33:58;;;;;;;25.55;22.10;;;7.40;93.50;;;;;;5061147;28;20473;-66
2023/01/24 07:36:23;;;;;;;25.00;20.88;;;7.50;93.30;;;;;;5071753;28;20477;-65
2023/01/24 07:38:53;;;;;;;22.80;19.55;;;7.50;93.40;;;;;;5072409;28;20021;-68
2023/01/24 07:41:19;;;;;;;21.00;18.48;;;7.50;93.20;;;;;;5072226;28;20021;-67
2023/01/24 07:43:44;;;;;;;24.52;20.40;;;7.50;93.30;;;;;;5070196;28;20031;-66
2023/01/24 07:46:10;;;;;;;23.65;19.42;;;7.50;93.20;;;;;;5071604;28;20035;-66
2023/01/24 07:48:36;;;;;;;23.25;19.48;;;7.50;93.20;;;;;;5070128;28;20035;-65
2023/01/24 07:51:01;;;;;;;21.80;18.77;;;7.40;93.30;;;;;;5074746;28;20158;-68
2023/01/24 07:53:27;;;;;;;23.52;19.23;;;7.50;93.20;;;;;;5075874;28;20043;-66
2023/01/24 07:55:52;;;;;;;24.10;20.30;;;7.40;93.20;;;;;;5073954;28;20033;-71
2023/01/24 07:58:18;;;;;;;22.50;19.05;;;7.50;93.10;;;;;;5074228;28;20039;-66
2023/01/24 08:00:44;;;;;;;23.23;19.63;;;7.40;93.20;;;;;;5075839;28;20027;-66
2023/01/24 08:03:10;;;;;;;22.05;18.77;;;7.40;93.20;;;;;;5076138;28;20088;-66
2023/01/24 08:05:37;;;;;;;25.83;22.27;;;7.50;93.20;;;;;;5074177;28;20478;-66
2023/01/24 08:08:03;;;;;;;24.17;20.25;;;7.50;93.30;;;;;;5074291;28;20512;-66
2023/01/24 08:10:29;;;;;;;23.88;19.63;;;7.50;93.20;;;;;;5073340;28;20032;-66
2023/01/24 08:12:55;;;;;;;24.67;19.38;;;7.40;93.30;;;;;;5074384;28;20028;-67
2023/01/24 08:15:20;;;;;;;22.25;19.33;;;7.30;93.40;;;;;;5075426;28;20020;-65
2023/01/24 08:17:46;;;;;;;22.83;19.33;;;7.30;93.50;;;;;;5075737;28;20377;-66
2023/01/24 08:20:12;;;;;;;21.83;18.95;;;7.40;93.40;;;;;;5075513;28;20437;-68
2023/01/24 08:22:39;;;;;;;23.63;19.63;;;7.40;93.40;;;;;;5074590;28;20024;-66
2023/01/24 08:25:05;;;;;;;23.98;18.95;;;7.40;93.50;;;;;;5072078;28;20025;-67
2023/01/24 08:27:31;;;;;;;24.25;20.27;;;7.40;93.50;;;;;;5075442;28;20056;-67
2023/01/24 08:29:57;;;;;;;23.05;20.45;;;7.40;93.40;;;;;;5075312;28;20025;-65
2023/01/24 08:32:23;;;;;;;23.77;19.83;;;7.40;93.30;;;;;;5072408;28;20500;-66
2023/01/24 08:34:49;;;;;;;23.38;19.25;;;7.40;93.20;;;;;;5074027;28;20020;-67
2023/01/24 08:37:15;;;;;;;23.40;19.05;;;7.30;93.50;;;;;;5073543;28;20035;-69
2023/01/24 08:39:40;;;;;;;23.10;17.88;;;7.40;93.60;;;;;;5069458;28;20028;-69
2023/01/24 08:42:06;;;;;;;23.95;19.35;;;7.40;93.40;;;;;;5075293;28;20029;-67
2023/01/24 08:44:31;;;;;;;22.38;19.25;;;7.40;93.50;;;;;;5074813;28;20504;-71
2023/01/24 08:46:57;;;;;;;22.42;18.92;;;7.40;93.60;;;;;;5072278;28;20028;-66
2023/01/24 08:49:22;;;;;;;21.42;18.30;;;7.40;93.60;;;;;;5073777;28;20028;-68
2023/01/24 08:51:48;;;;;;;21.25;18.27;;;7.40;93.60;;;;;;5073738;28;20029;-69
2023/01/24 08:54:14;;;;;;;23.95;19.98;;;7.50;93.40;;;;;;5073587;28;20477;-67
2023/01/24 08:56:40;;;;;;;20.30;17.88;;;7.50;93.10;;;;;;5069728;28;20040;-72
2023/01/24 08:59:05;;;;;;;27.17;20.67;;;7.50;93.50;;;;;;5050578;28;20021;-69
2023/01/24 09:01:33;;;;;;;24.00;21.20;;;7.40;93.30;;;;;;5069017;28;20060;-66
2023/01/24 09:03:59;;;;;;;23.90;19.55;;;7.50;93.10;;;;;;5072986;28;20032;-65
2023/01/24 09:06:25;;;;;;;21.08;18.75;;;7.50;93.00;;;;;;5073590;28;20503;-68
2023/01/24 09:08:53;;;;;;;25.73;21.40;;;7.50;93.00;;;;;;5073307;28;20017;-66
2023/01/24 09:11:18;;;;;;;26.67;21.75;;;7.50;93.10;;;;;;5073943;28;20073;-65
2023/01/24 09:13:44;;;;;;;29.23;23.42;;;7.50;93.10;;;;;;5073530;28;20033;-68
2023/01/24 09:16:09;;;;;;;26.92;23.27;;;7.50;93.00;;;;;;5072492;28;20443;-66
2023/01/24 09:18:35;;;;;;;26.88;23.10;;;7.50;93.00;;;;;;5070240;28;20029;-67
2023/01/24 09:21:02;;;;;;;24.63;21.10;;;7.50;93.00;;;;;;5073099;28;20028;-66
2023/01/24 09:23:27;;;;;;;23.35;19.75;;;7.60;92.90;;;;;;5073665;28;20438;-67
2023/01/24 09:25:54;;;;;;;24.95;19.88;;;7.60;92.90;;;;;;5072525;28;20060;-68
2023/01/24 09:28:20;;;;;;;24.88;20.98;;;7.50;93.10;;;;;;5073164;28;20035;-67
2023/01/24 09:30:49;;;;;;;25.17;20.55;;;7.50;93.10;;;;;;5066626;28;20024;-67
2023/01/24 09:33:17;;;;;;;31.20;25.77;;;7.50;93.10;;;;;;5072737;28;20119;-67
2023/01/24 09:35:51;;;;;;;28.50;23.67;;;7.60;92.90;;;;;;5072697;28;20066;-66
2023/01/24 09:38:16;;;;;;;31.77;26.75;;;7.50;92.90;;;;;;5073096;28;20047;-66
2023/01/24 09:40:50;;;;;;;36.03;30.92;;;7.50;92.90;;;;;;5070961;28;20477;-65
2023/01/24 09:43:26;;;;;;;29.90;26.38;;;7.50;92.70;;;;;;5073565;28;20020;-67
2023/01/24 09:46:04;;;;;;;38.03;29.38;;;7.60;92.90;;;;;;5072751;28;20386;-67
2023/01/24 09:48:34;;;;;;;35.42;30.98;;;7.60;92.90;;;;;;5072398;28;20021;-67
2023/01/24 09:51:04;;;;;;;35.40;30.42;;;7.50;92.80;;;;;;5072557;28;20477;-68
2023/01/24 09:53:37;;;;;;;32.78;28.52;;;7.50;92.90;;;;;;5071687;28;20035;-66
2023/01/24 09:56:05;;;;;;;31.30;26.10;;;7.50;92.90;;;;;;5071967;28;20473;-66
2023/01/24 09:58:39;;;;;;;34.38;29.95;;;7.50;92.90;;;;;;5072627;28;20032;-66
2023/01/24 10:01:13;;;;;;;32.25;27.77;;;7.60;92.80;;;;;;5072633;28;20139;-65
2023/01/24 10:03:40;;;;;;;31.63;28.23;;;7.60;92.80;;;;;;5072335;28;20021;-66
2023/01/24 10:06:29;;;;;;;31.02;26.58;;;7.60;92.70;;;;;;5068961;28;20020;-66
2023/01/24 10:08:58;;;;;;;31.73;26.98;;;7.60;92.90;;;;;;5058340;28;20024;-67
2023/01/24 10:11:45;;;;;;;32.05;27.05;;;7.60;92.90;;;;;;5070136;28;20513;-68
2023/01/24 10:14:17;;;;;;;31.40;25.77;;;7.60;93.10;;;;;;5069889;28;20074;-66
2023/01/24 10:17:13;;;;;;;29.00;23.88;;;7.60;93.20;;;;;;5053872;28;20401;-64
2023/01/24 10:19:39;;;;;;;27.40;23.42;;;7.60;93.20;;;;;;5072035;28;20040;-65
2023/01/24 10:22:22;;;;;;;26.30;22.48;;;7.60;93.20;;;;;;5054153;28;20024;-66
2023/01/24 10:24:58;;;;;;;27.05;23.42;;;7.60;93.30;;;;;;5070491;28;20036;-65
2023/01/24 10:27:31;;;;;;;26.63;22.27;;;7.70;92.90;;;;;;5072006;28;20039;-65
2023/01/24 10:30:11;;;;;;;26.92;24.08;;;7.70;92.70;;;;;;5071069;28;20056;-65
2023/01/24 10:32:43;;;;;;;25.25;22.48;;;7.70;92.60;;;;;;5071098;28;20051;-65
2023/01/24 10:35:17;;;;;;;23.83;21.33;;;7.60;92.70;;;;;;5069215;28;20424;-69
2023/01/24 10:37:47;;;;;;;28.58;20.90;;;7.70;92.80;;;;;;5072401;28;20344;-65
2023/01/24 10:40:15;;;;;;;25.15;21.17;;;7.70;92.70;;;;;;5072114;28;20017;-65
2023/01/24 10:42:41;;;;;;;25.80;21.33;;;7.70;92.30;;;;;;5071324;28;20020;-66
2023/01/24 10:45:35;;;;;;;25.95;22.40;;;7.70;92.50;;;;;;5066927;28;20131;-65
2023/01/24 10:48:35;;;;;;;24.95;22.00;;;7.70;92.40;;;;;;5071170;28;20030;-66
2023/01/24 10:51:13;;;;;;;24.40;21.65;;;7.70;92.50;;;;;;5032688;28;20110;-65
2023/01/24 10:53:38;;;;;;;23.30;20.75;;;7.70;92.50;;;;;;5052514;28;20039;-65
2023/01/24 10:56:05;;;;;;;23.33;20.38;;;7.80;92.60;;;;;;5069978;28;20028;-66
2023/01/24 10:58:55;;;;;;;22.77;19.90;;;7.80;92.40;;;;;;5071758;28;20044;-67
2023/01/24 11:01:23;;;;;;;25.08;20.23;;;7.80;92.30;;;;;;5071753;28;20431;-66
2023/01/24 11:03:51;;;;;;;23.77;20.15;;;7.80;92.40;;;;;;5069306;28;20017;-67
2023/01/24 11:06:27;;;;;;;25.58;22.35;;;7.80;92.30;;;;;;5051914;28;20028;-67
2023/01/24 11:09:00;;;;;;;22.33;19.92;;;7.80;92.40;;;;;;5069730;28;20020;-66
2023/01/24 11:11:30;;;;;;;25.92;22.17;;;7.90;92.20;;;;;;5055148;28;20071;-68
2023/01/24 11:13:58;;;;;;;27.13;23.83;;;7.80;92.20;;;;;;5071523;28;20382;-69
2023/01/24 11:16:31;;;;;;;27.20;23.38;;;7.80;92.10;;;;;;5064800;28;20074;-69
2023/01/24 11:19:05;;;;;;;24.92;20.90;;;7.80;92.10;;;;;;5071037;28;20021;-66
2023/01/24 11:21:32;;;;;;;25.15;21.38;;;7.90;92.00;;;;;;5071740;28;20028;-67
2023/01/24 11:24:06;;;;;;;24.75;22.13;;;7.80;92.10;;;;;;5071235;28;20427;-66
2023/01/24 11:26:36;;;;;;;28.20;23.65;;;7.80;92.10;;;;;;5071660;28;20575;-67
2023/01/24 11:29:13;;;;;;;28.35;25.35;;;7.80;92.00;;;;;;5071057;28;20025;-67
2023/01/24 11:31:44;;;;;;;30.50;25.33;;;7.90;92.10;;;;;;5071079;28;20036;-65
2023/01/24 11:34:39;;;;;;;29.05;24.30;;;7.80;92.10;;;;;;5051309;28;20041;-66
2023/01/24 11:37:14;;;;;;;26.92;23.48;;;7.90;92.10;;;;;;5051914;28;20029;-66
2023/01/24 11:40:14;;;;;;;28.30;23.17;;;7.80;92.10;;;;;;5051301;28;20067;-65
2023/01/24 11:43:00;;;;;;;27.33;24.17;;;7.80;92.10;;;;;;5057622;28;20028;-66
2023/01/24 11:45:37;;;;;;;28.90;25.85;;;7.80;92.10;;;;;;5070916;28;20021;-66
2023/01/24 11:48:15;;;;;;;32.03;26.95;;;7.80;92.00;;;;;;5069475;28;20032;-66
2023/01/24 11:51:12;;;;;;;27.85;24.13;;;7.90;92.10;;;;;;5069583;28;20461;-66
2023/01/24 11:53:58;;;;;;;24.85;22.15;;;7.90;92.10;;;;;;5070942;28;20043;-67
2023/01/24 11:56:40;;;;;;;28.13;23.15;;;7.80;92.10;;;;;;5071382;28;20040;-66
2023/01/24 11:59:27;;;;;;;26.77;22.77;;;7.80;92.20;;;;;;5067791;28;20367;-67
2023/01/24 12:02:20;;;;;;;24.38;21.73;;;7.90;92.10;;;;;;5051667;28;20029;-66
2023/01/24 12:05:14;;;;;;;26.17;23.38;;;7.90;92.10;;;;;;5050701;28;20032;-66
2023/01/24 12:07:56;;;;;;;27.83;24.83;;;7.90;92.10;;;;;;5043937;28;20424;-66
2023/01/24 12:10:27;;;;;;;26.88;23.38;;;7.90;92.10;;;;;;5068518;28;20032;-67
2023/01/24 12:13:02;;;;;;;28.13;25.10;;;7.90;92.10;;;;;;5050478;28;20049;-66
2023/01/24 12:16:02;;;;;;;31.35;27.60;;;7.90;92.10;;;;;;5068730;28;20370;-68
2023/01/24 12:18:48;;;;;;;29.10;24.65;;;7.90;92.20;;;;;;5065414;28;20048;-67
2023/01/24 12:21:13;;;;;;;25.38;22.63;;;8.00;92.00;;;;;;5049213;28;20429;-66
2023/01/24 12:23:59;;;;;;;25.27;22.55;;;7.90;91.90;;;;;;5068573;28;20025;-69
2023/01/24 12:26:26;;;;;;;24.13;21.52;;;7.90;91.90;;;;;;5068810;28;20044;-67
2023/01/24 12:29:12;;;;;;;25.40;21.10;;;7.90;92.10;;;;;;5065905;28;20092;-67
2023/01/24 12:31:49;;;;;;;22.95;20.02;;;7.90;92.00;;;;;;5070393;28;20419;-67
2023/01/24 12:34:34;;;;;;;29.13;23.98;;;8.00;92.00;;;;;;5070366;28;20028;-67
2023/01/24 12:37:18;;;;;;;25.88;22.35;;;8.00;91.70;;;;;;5069636;28;20037;-67
2023/01/24 12:39:59;;;;;;;28.85;24.08;;;8.00;92.10;;;;;;5057867;28;20021;-67
2023/01/24 12:43:03;;;;;;;27.02;22.10;;;8.00;91.70;;;;;;5060807;28;20021;-67
2023/01/24 12:45:36;;;;;;;26.58;22.38;;;7.90;92.00;;;;;;5063491;28;20067;-66
2023/01/24 12:48:10;;;;;;;30.73;23.98;;;7.90;92.00;;;;;;5069694;28;20477;-67
2023/01/24 12:51:00;;;;;;;28.45;22.05;;;7.90;91.80;;;;;;5068326;28;20059;-66
2023/01/24 12:53:44;;;;;;;28.63;24.83;;;7.90;92.10;;;;;;5073337;28;20044;-66
2023/01/24 12:56:27;;;;;;;28.08;24.05;;;7.90;92.00;;;;;;5073726;28;20036;-66
2023/01/24 12:58:53;;;;;;;29.92;24.15;;;7.90;92.10;;;;;;5061755;28;20036;-66
2023/01/24 13:01:26;;;;;;;34.47;27.42;;;7.80;92.70;;;;;;5066019;28;20043;-68
2023/01/24 13:04:20;;;;;;;35.55;28.83;;;7.90;92.70;;;;;;5072348;28;20043;-67
2023/01/24 13:06:52;;;;;;;37.58;31.83;;;8.10;92.10;;;;;;5052075;28;20489;-67
2023/01/24 13:09:29;;;;;;;38.05;30.92;;;8.00;91.90;;;;;;5057135;28;20492;-68
2023/01/24 13:11:57;;;;;;;35.75;30.90;;;8.00;91.90;;;;;;5073043;28;20028;-68
2023/01/24 13:14:39;;;;;;;32.35;28.30;;;8.00;91.80;;;;;;5067406;28;20052;-68
2023/01/24 13:17:17;;;;;;;38.58;32.08;;;8.10;91.70;;;;;;5069934;28;20489;-67
2023/01/24 13:19:54;;;;;;;36.08;32.17;;;8.10;91.80;;;;;;5057835;28;20037;-67
2023/01/24 13:22:28;;;;;;;36.47;32.25;;;8.00;91.80;;;;;;5063037;28;20029;-68
2023/01/24 13:25:00;;;;;;;38.97;32.67;;;8.00;91.90;;;;;;5073136;28;20500;-66
2023/01/24 13:27:40;;;;;;;37.93;32.23;;;8.00;91.90;;;;;;5073164;28;20124;-67
2023/01/24 13:30:32;;;;;;;39.15;33.30;;;8.10;91.70;;;;;;5071683;28;20275;-67